Time;durP1;ratioP1;P1;durP2;ratioP2;P2;SDS_P1;SDS_P2;PMS_P1;PMS_P2;Temp;Humidity;BMP_temperature;BMP_pressure;BME280_temperature;BME280_humidity;BME280_pressure;Samples;Min_cycle;Max_cycle;Signal;HPM_P1;HPM_P2
2023/12/29 00:00:33;;;;;;;0.20;0.20;;;;;;;9.91;100.00;100676.66;5091660;28;20016;-59
2023/12/29 00:02:58;;;;;;;0.20;0.20;;;;;;;9.89;100.00;100662.03;5092797;28;20361;-58
2023/12/29 00:05:23;;;;;;;0.20;0.20;;;;;;;9.88;100.00;100672.28;5092584;28;20032;-59
2023/12/29 00:07:48;;;;;;;0.30;0.30;;;;;;;9.84;100.00;100668.75;5092104;28;20486;-59
2023/12/29 00:10:14;;;;;;;0.20;0.20;;;;;;;9.83;100.00;100666.97;5092243;28;20078;-59
2023/12/29 00:12:39;;;;;;;0.20;0.20;;;;;;;9.85;100.00;100646.44;5091955;28;20053;-59
2023/12/29 00:15:05;;;;;;;0.30;0.30;;;;;;;9.84;100.00;100650.72;5092338;28;20024;-59
2023/12/29 00:17:31;;;;;;;0.20;0.20;;;;;;;9.86;100.00;100654.22;5092178;28;20032;-59
2023/12/29 00:19:57;;;;;;;0.30;0.30;;;;;;;9.87;100.00;100653.38;5094862;28;20327;-59
2023/12/29 00:22:23;;;;;;;0.30;0.30;;;;;;;9.88;100.00;100642.25;5096427;28;20525;-59
2023/12/29 00:24:49;;;;;;;0.30;0.30;;;;;;;9.88;100.00;100651.69;5096349;28;20031;-59
2023/12/29 00:27:14;;;;;;;0.30;0.30;;;;;;;9.84;100.00;100650.72;5095236;28;20016;-59
2023/12/29 00:29:39;;;;;;;0.30;0.30;;;;;;;9.82;100.00;100647.22;5096678;28;20051;-58
2023/12/29 00:32:05;;;;;;;0.20;0.20;;;;;;;9.75;100.00;100644.41;5096693;28;20032;-59
2023/12/29 00:34:30;;;;;;;0.20;0.20;;;;;;;9.72;100.00;100642.63;5095594;28;20036;-59
2023/12/29 00:36:55;;;;;;;0.20;0.20;;;;;;;9.71;100.00;100633.19;5096411;28;20031;-59
2023/12/29 00:39:28;;;;;;;0.20;0.20;;;;;;;9.74;100.00;100646.13;5096079;28;20020;-59
2023/12/29 00:41:54;;;;;;;0.30;0.30;;;;;;;9.73;100.00;100621.22;5095921;28;20039;-59
2023/12/29 00:44:19;;;;;;;0.20;0.20;;;;;;;9.70;100.00;100605.69;5096226;28;20024;-59
2023/12/29 00:46:44;;;;;;;0.30;0.30;;;;;;;9.62;100.00;100630.31;5096534;28;20095;-59
2023/12/29 00:49:09;;;;;;;0.20;0.20;;;;;;;9.53;100.00;100629.22;5095135;28;20047;-59
2023/12/29 00:51:40;;;;;;;0.30;0.30;;;;;;;9.42;100.00;100625.44;5096086;28;20383;-59
2023/12/29 00:54:06;;;;;;;0.30;0.30;;;;;;;9.33;100.00;100632.88;5095877;28;20115;-58
2023/12/29 00:56:31;;;;;;;0.22;0.22;;;;;;;9.26;100.00;100636.06;5095395;28;20115;-59
2023/12/29 00:58:56;;;;;;;0.20;0.20;;;;;;;9.12;100.00;100627.94;5096018;28;20357;-59
2023/12/29 01:01:21;;;;;;;0.20;0.20;;;;;;;9.04;100.00;100617.41;5095624;28;20028;-59
2023/12/29 01:03:47;;;;;;;0.30;0.30;;;;;;;8.98;100.00;100625.78;5095221;28;20533;-59
2023/12/29 01:06:12;;;;;;;0.25;0.25;;;;;;;8.97;100.00;100638.59;5096117;28;20024;-59
2023/12/29 01:08:37;;;;;;;0.30;0.30;;;;;;;8.97;100.00;100623.16;5095732;28;20032;-59
2023/12/29 01:11:03;;;;;;;0.30;0.30;;;;;;;8.94;100.00;100626.50;5094933;28;20047;-59
2023/12/29 01:13:28;;;;;;;0.30;0.30;;;;;;;8.93;100.00;100621.31;5095515;28;20048;-59
2023/12/29 01:15:54;;;;;;;0.20;0.20;;;;;;;8.85;100.00;100631.34;5095198;28;20020;-59
2023/12/29 01:18:19;;;;;;;0.20;0.20;;;;;;;8.81;100.00;100630.38;5095146;28;20024;-59
2023/12/29 01:20:44;;;;;;;0.30;0.30;;;;;;;8.71;100.00;100630.88;5095836;28;20036;-59
2023/12/29 01:23:09;;;;;;;0.30;0.30;;;;;;;8.61;100.00;100633.97;5094718;28;20021;-59
2023/12/29 01:25:35;;;;;;;0.22;0.22;;;;;;;8.49;100.00;100631.84;5095711;28;20360;-59
2023/12/29 01:28:00;;;;;;;0.30;0.30;;;;;;;8.40;100.00;100629.81;5095918;28;20105;-60
2023/12/29 01:30:25;;;;;;;0.20;0.20;;;;;;;8.33;100.00;100630.44;5093652;28;20028;-59
2023/12/29 01:32:50;;;;;;;0.28;0.28;;;;;;;8.26;100.00;100626.75;5095754;28;20024;-59
2023/12/29 01:35:16;;;;;;;0.30;0.30;;;;;;;8.19;100.00;100628.22;5095332;28;20024;-59
2023/12/29 01:37:42;;;;;;;0.30;0.30;;;;;;;8.16;100.00;100624.66;5094487;28;20020;-60
2023/12/29 01:40:07;;;;;;;0.20;0.20;;;;;;;8.08;100.00;100616.69;5095396;28;20036;-60
2023/12/29 01:42:33;;;;;;;0.20;0.20;;;;;;;8.07;100.00;100618.41;5095117;28;20488;-59
2023/12/29 01:44:59;;;;;;;0.30;0.30;;;;;;;8.03;100.00;100620.78;5094573;28;20024;-60
2023/12/29 01:47:24;;;;;;;0.30;0.30;;;;;;;7.99;100.00;100603.53;5095015;28;20023;-59
2023/12/29 01:49:50;;;;;;;0.20;0.20;;;;;;;8.01;100.00;100622.44;5074919;28;20036;-59
2023/12/29 01:52:20;;;;;;;0.20;0.20;;;;;;;7.96;100.00;100622.25;5073892;28;20032;-59
2023/12/29 01:54:48;;;;;;;0.20;0.20;;;;;;;7.95;100.00;100615.38;5075166;28;20025;-60
2023/12/29 01:57:14;;;;;;;0.38;0.38;;;;;;;7.91;100.00;100616.97;5074649;28;20491;-59
2023/12/29 01:59:40;;;;;;;0.20;0.20;;;;;;;7.95;100.00;100611.94;5074188;28;20025;-59
2023/12/29 02:02:06;;;;;;;0.30;0.30;;;;;;;7.95;100.00;100597.41;5074793;28;20051;-59
2023/12/29 02:04:32;;;;;;;0.20;0.20;;;;;;;7.99;100.00;100598.41;5074689;28;20056;-59
2023/12/29 02:06:57;;;;;;;0.30;0.30;;;;;;;8.02;100.00;100598.53;5073847;28;20431;-60
2023/12/29 02:09:23;;;;;;;0.30;0.30;;;;;;;8.03;100.00;100606.28;5074312;28;20517;-59
2023/12/29 02:11:48;;;;;;;0.20;0.20;;;;;;;8.04;100.00;100608.03;5074775;28;20033;-59
2023/12/29 02:14:15;;;;;;;0.20;0.20;;;;;;;8.05;100.00;100616.59;5073629;28;20021;-59
2023/12/29 02:17:00;;;;;;;0.30;0.30;;;;;;;8.10;100.00;100607.38;5074639;28;20069;-59
2023/12/29 02:19:39;;;;;;;0.30;0.30;;;;;;;8.13;100.00;100612.59;5073458;28;20040;-59
2023/12/29 02:22:05;;;;;;;0.20;0.20;;;;;;;8.16;100.00;100610.16;5074351;28;20050;-59
2023/12/29 02:24:32;;;;;;;0.20;0.20;;;;;;;8.20;100.00;100608.59;5073928;28;20036;-60
2023/12/29 02:27:12;;;;;;;0.20;0.20;;;;;;;8.27;100.00;100605.38;5073422;28;20029;-59
2023/12/29 02:29:40;;;;;;;0.28;0.28;;;;;;;8.32;100.00;100606.44;5074301;28;20051;-59
2023/12/29 02:32:09;;;;;;;0.25;0.25;;;;;;;8.39;100.00;100608.41;5074073;28;20111;-59
2023/12/29 02:34:36;;;;;;;0.30;0.30;;;;;;;8.44;100.00;100592.28;5073496;28;20058;-59
2023/12/29 02:37:02;;;;;;;0.22;0.22;;;;;;;8.49;100.00;100603.59;5073812;28;20430;-59
2023/12/29 02:39:28;;;;;;;0.20;0.20;;;;;;;8.51;100.00;100600.28;5073624;28;20029;-59
2023/12/29 02:41:53;;;;;;;0.20;0.20;;;;;;;8.59;100.00;100597.09;5072707;28;20031;-59
2023/12/29 02:44:19;;;;;;;0.38;0.38;;;;;;;8.60;100.00;100594.56;5073588;28;20019;-59
2023/12/29 02:46:44;;;;;;;0.28;0.28;;;;;;;8.67;100.00;100605.91;5073711;28;20016;-59
2023/12/29 02:49:12;;;;;;;0.30;0.30;;;;;;;8.70;100.00;100606.00;5087329;28;20048;-59
2023/12/29 02:51:38;;;;;;;0.30;0.30;;;;;;;8.72;100.00;100615.50;5094069;28;20020;-59
2023/12/29 02:54:05;;;;;;;0.20;0.20;;;;;;;8.80;100.00;100617.47;5093937;28;20035;-59
2023/12/29 02:56:30;;;;;;;0.30;0.30;;;;;;;8.84;100.00;100612.47;5092819;28;20048;-59
2023/12/29 02:58:56;;;;;;;0.30;0.30;;;;;;;8.83;100.00;100613.31;5093702;28;20109;-59
2023/12/29 03:01:21;;;;;;;0.28;0.28;;;;;;;8.88;100.00;100604.06;5093241;28;20031;-59
2023/12/29 03:03:46;;;;;;;0.20;0.20;;;;;;;8.92;100.00;100606.72;5093036;28;20430;-59
2023/12/29 03:06:12;;;;;;;0.30;0.30;;;;;;;8.93;100.00;100613.63;5093609;28;20035;-59
2023/12/29 03:08:37;;;;;;;0.20;0.20;;;;;;;8.94;100.00;100602.53;5093007;28;20020;-59
2023/12/29 03:11:02;;;;;;;0.30;0.30;;;;;;;8.94;100.00;100607.66;5093574;28;20059;-59
2023/12/29 03:13:27;;;;;;;0.30;0.30;;;;;;;8.94;100.00;100612.78;5093250;28;20035;-59
2023/12/29 03:15:53;;;;;;;0.30;0.30;;;;;;;8.95;100.00;100606.81;5092425;28;20017;-59
2023/12/29 03:18:18;;;;;;;0.20;0.20;;;;;;;9.00;100.00;100606.16;5093125;28;20345;-61
2023/12/29 03:20:43;;;;;;;0.30;0.30;;;;;;;8.99;100.00;100612.13;5093097;28;20059;-59
2023/12/29 03:23:09;;;;;;;0.30;0.30;;;;;;;9.01;100.00;100605.34;5092514;28;20031;-59
2023/12/29 03:25:34;;;;;;;0.20;0.20;;;;;;;9.03;100.00;100605.38;5093088;28;20024;-59
2023/12/29 03:28:00;;;;;;;0.30;0.30;;;;;;;9.04;100.00;100605.41;5092943;28;20056;-59
2023/12/29 03:30:25;;;;;;;0.30;0.30;;;;;;;9.04;100.00;100594.28;5092125;28;20031;-59
2023/12/29 03:32:51;;;;;;;0.30;0.30;;;;;;;9.07;100.00;100604.66;5093127;28;20039;-59
2023/12/29 03:35:16;;;;;;;0.30;0.30;;;;;;;9.08;100.00;100588.41;5092616;28;20111;-59
2023/12/29 03:37:42;;;;;;;0.30;0.30;;;;;;;9.05;100.00;100593.44;5092185;28;20016;-59
2023/12/29 03:40:08;;;;;;;0.22;0.22;;;;;;;9.06;100.00;100595.19;5092759;28;20028;-59
2023/12/29 03:42:33;;;;;;;0.30;0.30;;;;;;;9.12;100.00;100595.38;5093029;28;20067;-59
2023/12/29 03:44:58;;;;;;;0.30;0.30;;;;;;;9.15;100.00;100597.16;5092079;28;20056;-59
2023/12/29 03:47:24;;;;;;;0.30;0.30;;;;;;;9.15;100.00;100590.31;5092603;28;20032;-59
2023/12/29 03:49:49;;;;;;;0.30;0.30;;;;;;;9.16;100.00;100592.06;5092568;28;20074;-59
2023/12/29 03:52:14;;;;;;;0.20;0.20;;;;;;;9.19;100.00;100593.88;5091438;28;20130;-59
2023/12/29 03:54:40;;;;;;;0.30;0.30;;;;;;;9.18;100.00;100580.16;5092111;28;20049;-59
2023/12/29 03:57:05;;;;;;;0.20;0.20;;;;;;;9.21;100.00;100590.50;5092988;28;20024;-59
2023/12/29 03:59:30;;;;;;;0.30;0.30;;;;;;;9.24;100.00;100597.44;5091557;28;20031;-59
2023/12/29 04:01:55;;;;;;;0.20;0.20;;;;;;;9.25;100.00;100588.91;5092774;28;20027;-59
2023/12/29 04:04:21;;;;;;;0.20;0.20;;;;;;;9.25;100.00;100590.63;5092438;28;20038;-59
2023/12/29 04:06:46;;;;;;;0.20;0.20;;;;;;;9.20;100.00;100599.06;5092174;28;20031;-59
2023/12/29 04:09:11;;;;;;;0.20;0.20;;;;;;;9.20;100.00;100583.63;5092386;28;20023;-59
2023/12/29 04:11:36;;;;;;;0.30;0.30;;;;;;;9.21;100.00;100599.94;5092691;28;20020;-59
2023/12/29 04:14:02;;;;;;;0.20;0.20;;;;;;;9.18;100.00;100595.56;5091713;28;20028;-59
2023/12/29 04:16:27;;;;;;;0.30;0.30;;;;;;;9.16;100.00;100601.50;5092547;28;20038;-59
2023/12/29 04:18:52;;;;;;;0.20;0.20;;;;;;;9.14;100.00;100583.47;5091437;28;20028;-59
2023/12/29 04:21:18;;;;;;;0.22;0.22;;;;;;;9.10;100.00;100586.72;5092287;28;20024;-59
2023/12/29 04:23:43;;;;;;;0.20;0.20;;;;;;;9.08;100.00;100583.25;5092565;28;20024;-59
2023/12/29 04:26:08;;;;;;;0.20;0.20;;;;;;;9.07;100.00;100591.78;5091805;28;20016;-59
2023/12/29 04:28:34;;;;;;;0.20;0.20;;;;;;;9.12;100.00;100579.09;5092142;28;20055;-59
2023/12/29 04:30:59;;;;;;;0.30;0.30;;;;;;;9.15;100.00;100571.47;5092679;28;20028;-59
2023/12/29 04:33:24;;;;;;;0.22;0.22;;;;;;;9.16;100.00;100574.06;5091483;28;20098;-59
2023/12/29 04:35:50;;;;;;;0.20;0.20;;;;;;;9.16;100.00;100580.94;5092350;28;20419;-59
2023/12/29 04:38:17;;;;;;;0.30;0.30;;;;;;;9.13;100.00;100576.56;5092173;28;20070;-59
2023/12/29 04:40:42;;;;;;;0.20;0.20;;;;;;;9.13;100.00;100581.72;5091584;28;20484;-59
2023/12/29 04:43:08;;;;;;;0.30;0.30;;;;;;;9.12;100.00;100589.38;5092240;28;20026;-59
2023/12/29 04:45:33;;;;;;;0.30;0.30;;;;;;;9.10;100.00;100586.72;5092343;28;20032;-59
2023/12/29 04:47:58;;;;;;;0.30;0.30;;;;;;;9.11;100.00;100598.78;5091275;28;20492;-59
2023/12/29 04:50:24;;;;;;;0.22;0.22;;;;;;;9.12;100.00;100582.53;5092101;28;20024;-59
2023/12/29 04:52:49;;;;;;;0.20;0.20;;;;;;;9.14;100.00;100578.31;5092431;28;20424;-59
2023/12/29 04:55:14;;;;;;;0.30;0.30;;;;;;;9.15;100.00;100585.19;5091230;28;20016;-59
2023/12/29 04:57:39;;;;;;;0.30;0.30;;;;;;;9.17;100.00;100592.97;5092572;28;20482;-59
2023/12/29 05:00:05;;;;;;;0.20;0.20;;;;;;;9.16;100.00;100602.34;5091982;28;20054;-59
2023/12/29 05:02:31;;;;;;;0.30;0.30;;;;;;;9.14;100.00;100593.75;5091054;28;20032;-59
2023/12/29 05:04:56;;;;;;;0.30;0.30;;;;;;;9.09;100.00;100595.28;5093250;28;20020;-59
2023/12/29 05:07:23;;;;;;;0.20;0.20;;;;;;;9.06;100.00;100588.34;5095543;28;20023;-59
2023/12/29 05:09:49;;;;;;;0.30;0.30;;;;;;;9.10;100.00;100599.59;5095047;28;20020;-59
2023/12/29 05:12:14;;;;;;;0.30;0.30;;;;;;;9.07;100.00;100597.78;5095616;28;20028;-59
2023/12/29 05:14:40;;;;;;;0.30;0.30;;;;;;;9.06;100.00;100605.47;5095646;28;20103;-60
2023/12/29 05:17:05;;;;;;;0.30;0.30;;;;;;;9.05;100.00;100603.72;5094959;28;20029;-59
2023/12/29 05:19:30;;;;;;;0.30;0.30;;;;;;;9.02;100.00;100594.19;5095484;28;20039;-59
2023/12/29 05:21:56;;;;;;;0.30;0.30;;;;;;;8.97;100.00;100600.91;5095790;28;20017;-59
2023/12/29 05:24:21;;;;;;;0.20;0.20;;;;;;;8.98;100.00;100581.22;5094639;28;20051;-59
2023/12/29 05:26:46;;;;;;;0.30;0.30;;;;;;;8.98;100.00;100594.06;5095559;28;20039;-59
2023/12/29 05:29:11;;;;;;;0.20;0.20;;;;;;;8.98;100.00;100599.22;5103020;28;20059;-59
2023/12/29 05:31:37;;;;;;;0.20;0.20;;;;;;;8.97;100.00;100606.03;5115660;28;20024;-59
2023/12/29 05:34:02;;;;;;;0.30;0.30;;;;;;;8.97;100.00;100589.75;5115838;28;20020;-59
2023/12/29 05:36:27;;;;;;;0.30;0.30;;;;;;;8.93;100.00;100585.34;5114806;28;20015;-59
2023/12/29 05:38:53;;;;;;;0.30;0.30;;;;;;;8.94;100.00;100581.97;5115794;28;20030;-59
2023/12/29 05:41:19;;;;;;;0.22;0.22;;;;;;;8.93;100.00;100585.34;5115370;28;20020;-59
2023/12/29 05:43:44;;;;;;;0.30;0.30;;;;;;;8.87;100.00;100579.19;5114682;28;20368;-59
2023/12/29 05:46:11;;;;;;;0.30;0.30;;;;;;;8.83;100.00;100582.47;5115587;28;20099;-59
2023/12/29 05:48:37;;;;;;;0.20;0.20;;;;;;;8.81;100.00;100584.13;5115399;28;20047;-59
2023/12/29 05:51:09;;;;;;;0.28;0.28;;;;;;;8.75;100.00;100583.06;5115095;28;20098;-59
2023/12/29 05:53:35;;;;;;;0.30;0.30;;;;;;;8.76;100.00;100593.38;5115464;28;20114;-59
2023/12/29 05:56:01;;;;;;;0.30;0.30;;;;;;;8.73;100.00;100585.56;5115151;28;20051;-59
2023/12/29 05:58:26;;;;;;;0.20;0.20;;;;;;;8.73;100.00;100581.31;5114346;28;20035;-59
2023/12/29 06:00:51;;;;;;;0.30;0.30;;;;;;;8.76;100.00;100575.38;5115549;28;20383;-59
2023/12/29 06:03:17;;;;;;;0.30;0.30;;;;;;;8.74;100.00;100582.19;5115270;28;20026;-59
2023/12/29 06:05:42;;;;;;;0.20;0.20;;;;;;;8.74;100.00;100587.34;5114548;28;20042;-58
2023/12/29 06:08:07;;;;;;;0.30;0.30;;;;;;;8.76;100.00;100582.22;5115256;28;20091;-59
2023/12/29 06:10:33;;;;;;;0.20;0.20;;;;;;;8.80;100.00;100566.94;5114964;28;20030;-59
2023/12/29 06:13:00;;;;;;;0.30;0.30;;;;;;;8.80;100.00;100591.78;5114415;28;20020;-59
2023/12/29 06:15:26;;;;;;;0.20;0.20;;;;;;;8.75;100.00;100589.06;5115031;28;20031;-59
2023/12/29 06:17:51;;;;;;;0.30;0.30;;;;;;;8.62;100.00;100589.47;5100239;28;20028;-59
2023/12/29 06:20:16;;;;;;;0.30;0.30;;;;;;;8.51;100.00;100589.13;5093296;28;20038;-59
2023/12/29 06:22:42;;;;;;;0.30;0.30;;;;;;;8.43;100.00;100580.25;5094146;28;20020;-59
2023/12/29 06:25:11;;;;;;;0.13;0.13;;;;;;;8.38;100.00;100585.25;5094241;28;20050;-59
2023/12/29 06:27:40;;;;;;;0.30;0.30;;;;;;;8.35;100.00;100582.56;5093351;28;20051;-59
2023/12/29 06:30:10;;;;;;;0.40;0.40;;;;;;;8.39;100.00;100582.72;5094326;28;20043;-59
2023/12/29 06:32:36;;;;;;;0.30;0.30;;;;;;;8.41;100.00;100582.75;5093585;28;20036;-60
2023/12/29 06:35:02;;;;;;;0.30;0.30;;;;;;;8.44;100.00;100588.00;5094146;28;20031;-59
2023/12/29 06:37:28;;;;;;;0.30;0.30;;;;;;;8.48;100.00;100589.00;5094015;28;20067;-59
2023/12/29 06:39:53;;;;;;;0.22;0.22;;;;;;;8.53;100.00;100588.38;5093439;28;20028;-59
2023/12/29 06:42:19;;;;;;;0.30;0.30;;;;;;;8.55;100.00;100596.13;5094077;28;20020;-59
2023/12/29 06:44:44;;;;;;;0.30;0.30;;;;;;;8.59;100.00;100576.53;5094381;28;20043;-59
2023/12/29 06:47:11;;;;;;;0.25;0.25;;;;;;;8.59;100.00;100587.69;5093314;28;20020;-59
2023/12/29 06:49:36;;;;;;;0.30;0.30;;;;;;;8.63;100.00;100591.22;5093828;28;20044;-59
2023/12/29 06:52:02;;;;;;;0.20;0.20;;;;;;;8.62;100.00;100579.19;5094143;28;20038;-59
2023/12/29 06:54:27;;;;;;;0.20;0.20;;;;;;;8.56;100.00;100580.75;5093118;28;20026;-59
2023/12/29 06:56:53;;;;;;;0.30;0.30;;;;;;;8.52;100.00;100586.59;5094255;28;20047;-59
2023/12/29 06:59:19;;;;;;;0.20;0.20;;;;;;;8.53;100.00;100583.22;5093689;28;20460;-59
2023/12/29 07:01:47;;;;;;;0.30;0.30;;;;;;;8.54;100.00;100569.53;5093071;28;20050;-59
2023/12/29 07:04:13;;;;;;;0.30;0.30;;;;;;;8.57;100.00;100574.78;5093607;28;20095;-59
2023/12/29 07:06:39;;;;;;;0.30;0.30;;;;;;;8.61;100.00;100580.91;5093800;28;20111;-59
2023/12/29 07:09:05;;;;;;;0.20;0.20;;;;;;;8.62;100.00;100556.94;5092956;28;20028;-59
2023/12/29 07:11:30;;;;;;;0.20;0.20;;;;;;;8.62;100.00;100564.66;5093052;28;20531;-59
2023/12/29 07:13:55;;;;;;;0.30;0.30;;;;;;;8.60;100.00;100558.59;5093909;28;20032;-59
2023/12/29 07:16:21;;;;;;;0.20;0.20;;;;;;;8.62;100.00;100556.94;5092650;28;20463;-59
2023/12/29 07:18:47;;;;;;;0.30;0.30;;;;;;;8.66;100.00;100547.66;5093648;28;20032;-59
2023/12/29 07:21:13;;;;;;;0.30;0.30;;;;;;;8.67;100.00;100545.13;5093349;28;20031;-59
2023/12/29 07:23:39;;;;;;;0.28;0.28;;;;;;;8.66;100.00;100542.50;5092554;28;20024;-59
2023/12/29 07:26:04;;;;;;;0.30;0.30;;;;;;;8.64;100.00;100567.28;5093522;28;20098;-59
2023/12/29 07:28:31;;;;;;;0.30;0.30;;;;;;;8.62;100.00;100576.63;5092365;28;20107;-59
2023/12/29 07:30:57;;;;;;;0.20;0.20;;;;;;;8.63;100.00;100563.84;5092807;28;20024;-59
2023/12/29 07:33:23;;;;;;;0.20;0.20;;;;;;;8.62;100.00;100558.66;5092722;28;20024;-59
2023/12/29 07:35:49;;;;;;;0.30;0.30;;;;;;;8.64;100.00;100549.31;5092191;28;20047;-58
2023/12/29 07:38:14;;;;;;;0.30;0.30;;;;;;;8.65;100.00;100556.16;5092302;28;20381;-58
2023/12/29 07:40:40;;;;;;;0.20;0.20;;;;;;;8.66;100.00;100568.19;5093182;28;20132;-58
2023/12/29 07:43:05;;;;;;;0.30;0.30;;;;;;;8.69;100.00;100547.75;5092360;28;20020;-58
2023/12/29 07:45:31;;;;;;;0.20;0.20;;;;;;;8.72;100.00;100555.56;5092885;28;20044;-57
2023/12/29 07:47:57;;;;;;;0.30;0.30;;;;;;;8.75;100.00;100552.22;5092708;28;20532;-57
2023/12/29 07:50:22;;;;;;;0.30;0.30;;;;;;;8.78;100.00;100560.00;5091975;28;20034;-58
2023/12/29 07:52:47;;;;;;;0.28;0.28;;;;;;;8.80;100.00;100572.09;5093033;28;20051;-58
2023/12/29 07:55:13;;;;;;;0.20;0.20;;;;;;;8.81;100.00;100584.13;5093051;28;20024;-58
2023/12/29 07:57:38;;;;;;;0.30;0.30;;;;;;;8.82;100.00;100580.72;5092429;28;20021;-58
2023/12/29 08:00:06;;;;;;;0.30;0.30;;;;;;;8.84;100.00;100589.34;5093048;28;20124;-58
2023/12/29 08:02:31;;;;;;;;;;;;;;;8.93;100.00;100587.91;5093024;28;20031;-59
2023/12/29 08:04:56;;;;;;;0.30;0.30;;;;;;;8.88;100.00;100583.50;5092146;28;19912;-58
2023/12/29 08:07:22;;;;;;;0.20;0.20;;;;;;;8.86;100.00;100582.56;5092431;28;20032;-58
2023/12/29 08:09:47;;;;;;;0.30;0.30;;;;;;;8.88;100.00;100574.91;5092556;28;20122;-58
2023/12/29 08:12:13;;;;;;;0.28;0.28;;;;;;;8.85;100.00;100570.53;5091600;28;20046;-58
2023/12/29 08:14:39;;;;;;;0.20;0.20;;;;;;;8.84;100.00;100568.78;5092786;28;20024;-59
2023/12/29 08:17:04;;;;;;;0.30;0.30;;;;;;;8.83;100.00;100567.06;5092768;28;20026;-58
2023/12/29 08:19:29;;;;;;;0.20;0.20;;;;;;;8.82;100.00;100569.56;5091662;28;20115;-58
2023/12/29 08:21:54;;;;;;;0.30;0.30;;;;;;;8.84;100.00;100571.34;5092485;28;20077;-58
2023/12/29 08:24:20;;;;;;;0.22;0.22;;;;;;;8.84;100.00;100568.78;5092437;28;20045;-58
2023/12/29 08:26:46;;;;;;;0.25;0.25;;;;;;;8.87;100.00;100571.47;5091813;28;20487;-58
2023/12/29 08:29:13;;;;;;;0.30;0.30;;;;;;;8.88;100.00;100569.75;5092283;28;20032;-58
2023/12/29 08:31:38;;;;;;;0.20;0.20;;;;;;;8.86;100.00;100587.72;5092558;28;20020;-58
2023/12/29 08:34:04;;;;;;;0.28;0.28;;;;;;;8.87;100.00;100574.03;5091898;28;20027;-58
2023/12/29 08:36:29;;;;;;;0.30;0.30;;;;;;;8.87;100.00;100584.31;5092103;28;20055;-58
2023/12/29 08:38:54;;;;;;;0.25;0.25;;;;;;;8.84;100.00;100594.47;5092083;28;20491;-58
2023/12/29 08:41:20;;;;;;;0.20;0.20;;;;;;;8.82;100.00;100598.72;5095111;28;20028;-58
2023/12/29 08:43:45;;;;;;;0.30;0.30;;;;;;;8.81;100.00;100583.25;5096290;28;20051;-58
2023/12/29 08:46:10;;;;;;;0.30;0.30;;;;;;;8.77;100.00;100602.84;5095480;28;20028;-58
2023/12/29 08:48:36;;;;;;;0.30;0.30;;;;;;;8.76;100.00;100595.09;5096147;28;20128;-58
2023/12/29 08:51:01;;;;;;;0.20;0.20;;;;;;;8.78;100.00;100594.31;5096130;28;20472;-58
2023/12/29 08:53:26;;;;;;;0.30;0.30;;;;;;;8.80;100.00;100595.22;5095123;28;20028;-58
2023/12/29 08:55:52;;;;;;;0.30;0.30;;;;;;;8.84;100.00;100593.63;5096498;28;20024;-58
2023/12/29 08:58:17;;;;;;;0.20;0.20;;;;;;;8.86;100.00;100602.28;5095907;28;20395;-58
2023/12/29 09:00:43;;;;;;;0.30;0.30;;;;;;;8.92;100.00;100591.31;5095421;28;20043;-59
2023/12/29 09:03:08;;;;;;;0.30;0.30;;;;;;;8.93;100.00;100604.19;5096063;28;20024;-58
2023/12/29 09:05:34;;;;;;;0.20;0.20;;;;;;;8.96;100.00;100600.84;5095720;28;20085;-58
2023/12/29 09:07:59;;;;;;;0.30;0.30;;;;;;;8.97;100.00;100595.75;5095367;28;20032;-59
2023/12/29 09:10:25;;;;;;;0.30;0.30;;;;;;;8.99;100.00;100578.69;5095804;28;20035;-58
2023/12/29 09:12:50;;;;;;;0.30;0.30;;;;;;;9.00;100.00;100594.97;5096025;28;20090;-58
2023/12/29 09:15:16;;;;;;;0.30;0.30;;;;;;;8.93;100.00;100603.34;5094997;28;20103;-58
2023/12/29 09:17:41;;;;;;;0.30;0.30;;;;;;;8.83;100.00;100603.03;5095924;28;20451;-57
2023/12/29 09:20:08;;;;;;;0.30;0.30;;;;;;;8.73;100.00;100613.84;5095790;28;20098;-58
2023/12/29 09:22:34;;;;;;;0.30;0.30;;;;;;;8.65;100.00;100607.56;5094701;28;20051;-58
2023/12/29 09:24:59;;;;;;;0.20;0.20;;;;;;;8.60;100.00;100614.22;5096138;28;20051;-58
2023/12/29 09:27:24;;;;;;;0.30;0.30;;;;;;;8.57;100.00;100607.28;5095505;28;20050;-58
2023/12/29 09:29:50;;;;;;;0.32;0.30;;;;;;;8.59;100.00;100612.50;5094854;28;20032;-58
2023/12/29 09:32:15;;;;;;;0.30;0.30;;;;;;;8.60;100.00;100614.22;5095391;28;20509;-58
2023/12/29 09:34:42;;;;;;;0.30;0.30;;;;;;;8.62;100.00;100615.16;5095551;28;20063;-58
2023/12/29 09:37:07;;;;;;;0.20;0.20;;;;;;;8.64;100.00;100600.69;5094678;28;20046;-58
2023/12/29 09:39:33;;;;;;;0.20;0.20;;;;;;;8.66;100.00;100614.44;5095079;28;20028;-58
2023/12/29 09:42:03;;;;;;;0.30;0.30;;;;;;;8.66;100.00;100609.31;5095507;28;20020;-58
2023/12/29 09:44:31;;;;;;;0.30;0.30;;;;;;;8.64;100.00;100613.53;5094591;28;20020;-58
2023/12/29 09:47:03;;;;;;;0.30;0.30;;;;;;;8.65;100.00;100617.81;5095433;28;20078;-58
2023/12/29 09:49:41;;;;;;;0.30;0.30;;;;;;;8.67;100.00;100621.34;5093874;28;20044;-58
2023/12/29 09:52:09;;;;;;;0.30;0.30;;;;;;;8.68;100.00;100621.38;5094317;28;20044;-58
2023/12/29 09:54:36;;;;;;;0.20;0.20;;;;;;;8.72;100.00;100619.78;5095108;28;20686;-58
2023/12/29 09:57:04;;;;;;;0.30;0.30;;;;;;;8.73;100.00;100627.56;5094519;28;20062;-58
2023/12/29 09:59:29;;;;;;;0.30;0.30;;;;;;;8.77;100.00;100628.53;5094737;28;20098;-58
2023/12/29 10:01:55;;;;;;;0.20;0.20;;;;;;;8.84;100.00;100629.59;5095197;28;20412;-58
2023/12/29 10:04:21;;;;;;;0.30;0.30;;;;;;;8.89;100.00;100623.78;5093871;28;20052;-58
2023/12/29 10:06:50;;;;;;;0.30;0.30;;;;;;;8.96;100.00;100624.88;5095014;28;20063;-58
2023/12/29 10:09:17;;;;;;;0.30;0.30;;;;;;;9.02;100.00;100617.34;5094815;28;20028;-58
2023/12/29 10:11:48;;;;;;;0.30;0.30;;;;;;;9.10;100.00;100624.44;5094125;28;20020;-58
2023/12/29 10:14:30;;;;;;;0.30;0.30;;;;;;;9.16;100.00;100625.50;5094663;28;20435;-58
2023/12/29 10:17:07;;;;;;;0.20;0.20;;;;;;;9.19;100.00;100635.91;5094960;28;20043;-58
2023/12/29 10:19:50;;;;;;;0.20;0.20;;;;;;;9.25;100.00;100632.63;5093784;28;20036;-58
2023/12/29 10:22:21;;;;;;;0.28;0.28;;;;;;;9.30;100.00;100641.38;5094598;28;20052;-58
2023/12/29 10:24:47;;;;;;;0.25;0.25;;;;;;;9.38;100.00;100639.03;5093864;28;20051;-58
2023/12/29 10:27:13;;;;;;;0.30;0.30;;;;;;;9.43;100.00;100642.63;5094475;28;20539;-58
2023/12/29 10:29:38;;;;;;;0.20;0.20;;;;;;;9.48;100.00;100638.50;5094527;28;20486;-58
2023/12/29 10:32:04;;;;;;;0.20;0.20;;;;;;;9.50;100.00;100657.44;5093833;28;20055;-58
2023/12/29 10:34:30;;;;;;;0.20;0.20;;;;;;;9.48;100.00;100655.63;5094266;28;20106;-58
2023/12/29 10:36:56;;;;;;;0.20;0.20;;;;;;;9.46;100.00;100653.00;5094419;28;20020;-58
2023/12/29 10:39:22;;;;;;;0.30;0.30;;;;;;;9.42;100.00;100671.75;5093069;28;20085;-58
2023/12/29 10:41:47;;;;;;;0.20;0.20;;;;;;;9.43;100.00;100673.50;5094398;28;20020;-58
2023/12/29 10:44:13;;;;;;;0.20;0.20;;;;;;;9.44;100.00;100675.25;5094088;28;20032;-58
2023/12/29 10:46:38;;;;;;;0.20;0.20;;;;;;;9.46;100.00;100678.72;5093663;28;20024;-58
2023/12/29 10:49:22;;;;;;;0.20;0.20;;;;;;;9.51;100.00;100676.31;5093980;28;20475;-58
2023/12/29 10:51:47;;;;;;;0.30;0.30;;;;;;;9.50;100.00;100680.59;5094127;28;20107;-58
2023/12/29 10:54:23;;;;;;;0.20;0.20;;;;;;;9.53;100.00;100669.53;5093430;28;20406;-58
2023/12/29 10:57:02;;;;;;;0.30;0.30;;;;;;;9.58;100.00;100674.78;5094178;28;20031;-58
2023/12/29 10:59:27;;;;;;;0.30;0.30;;;;;;;9.58;100.00;100665.38;5093727;28;20050;-58
2023/12/29 11:01:53;;;;;;;0.15;0.15;;;;;;;9.61;100.00;100662.03;5093298;28;20475;-58
2023/12/29 11:04:22;;;;;;;0.28;0.28;;;;;;;9.63;100.00;100665.50;5093339;28;20024;-58
2023/12/29 11:06:48;;;;;;;0.30;0.30;;;;;;;9.67;100.00;100651.91;5093208;28;20032;-58
2023/12/29 11:09:14;;;;;;;0.20;0.20;;;;;;;9.69;100.00;100660.56;5093598;28;20135;-58
2023/12/29 11:11:39;;;;;;;0.22;0.22;;;;;;;9.72;100.00;100652.91;5093888;28;20028;-58
2023/12/29 11:14:05;;;;;;;0.30;0.30;;;;;;;9.74;100.00;100658.13;5092992;28;20024;-58
2023/12/29 11:16:31;;;;;;;0.30;0.30;;;;;;;9.74;100.00;100656.41;5093390;28;20027;-58
2023/12/29 11:18:58;;;;;;;0.20;0.20;;;;;;;9.75;100.00;100655.59;5093463;28;20101;-58